Mount Pleasant, SC

4:41 PM EDT on July 27, 2016 (GMT -0400)
Snee Farm | | Change Station

Elev 22 ft 32.84 °N, 79.84 °W | Updated 58 seconds ago

Clear
Clear
90.1 °F
Feels Like 107 °F
N
1.0
Wind Variable Wind from South

Today
High -- | Low -- °F
--% Chance of Precip.
Yesterday
High -- | Low -- °F
Precip. -- in
Pressure 29.99 in
Visibility 10.0 miles
Clouds Clear
Heat Index 107 °F
Dew Point 79 °F
Humidity 71%
Rainfall 0.00 in
Snow Depth Not available.
6:30 AM 8:21 PM
Last Quarter, 40% visible
METAR KJZI 272035Z AUTO 20009G17KT 10SM CLR 33/26 A2999 RMK AO2
Pressure 29.99 in
Visibility 10.0 miles
Clouds Clear
Heat Index 107 °F
Dew Point 79 °F
Humidity 71%
Rainfall 0.00 in
Snow Depth Not available.
6:30 AM 8:21 PM
Last Quarter, 40% visible
METAR KJZI 272035Z AUTO 20009G17KT 10SM CLR 33/26 A2999 RMK AO2

10-Day Weather Forecast

Almanac

Astronomy

Jul. 27, 2016 Rise Set
Actual Time
Civil Twilight
Nautical Twilight
Astronomical Twilight
Moon
Length of Visible Light
Length of Day
Tomorrow will be .
, % of the Moon is Illuminated

Today's Extremes

State Highs State Lows

Community

WunderPhotos

Upload Photos

1,927,933 photos uploaded!

WunderBlog® & News

Nearby

Air Quality

  Air Quality AQ Index Pollutant
Not available.

Snow Depth

Station Depth Elevation

Earthquake Activity

City Distance Mag. Time & Date
Minimum magnitude displayed is 2.5.

Coastal Water Temperatures

Place Temperature

Stations

Nearby Weather Stations

Station Location Temp. Windchill Dew Point Humidity Wind Precip. Elev Updated Type
                   

Watches & Warnings

There are currently no watches in effect.